sensor_id;sensor_type;location;lat;lon;timestamp;P1;durP1;ratioP1;P2;durP2;ratioP2
67108;SDS011;54027;50.786;7.058;2023-09-07T00:01:07;7.05;;;5.90;;
67108;SDS011;54027;50.786;7.058;2023-09-07T00:03:33;7.38;;;5.82;;
67108;SDS011;54027;50.786;7.058;2023-09-07T00:05:58;6.82;;;5.07;;
67108;SDS011;54027;50.786;7.058;2023-09-07T00:08:23;8.23;;;5.70;;
67108;SDS011;54027;50.786;7.058;2023-09-07T00:10:50;6.78;;;5.32;;
67108;SDS011;54027;50.786;7.058;2023-09-07T00:13:16;8.50;;;6.07;;
67108;SDS011;54027;50.786;7.058;2023-09-07T00:15:42;7.55;;;5.95;;
67108;SDS011;54027;50.786;7.058;2023-09-07T00:18:08;9.05;;;6.15;;
67108;SDS011;54027;50.786;7.058;2023-09-07T00:20:33;7.75;;;5.75;;
67108;SDS011;54027;50.786;7.058;2023-09-07T00:22:59;8.13;;;6.13;;
67108;SDS011;54027;50.786;7.058;2023-09-07T00:25:25;9.23;;;6.53;;
67108;SDS011;54027;50.786;7.058;2023-09-07T00:27:51;10.88;;;6.50;;
67108;SDS011;54027;50.786;7.058;2023-09-07T00:30:17;6.75;;;5.38;;
67108;SDS011;54027;50.786;7.058;2023-09-07T00:32:42;7.20;;;5.95;;
67108;SDS011;54027;50.786;7.058;2023-09-07T00:35:08;6.93;;;4.97;;
67108;SDS011;54027;50.786;7.058;2023-09-07T00:37:33;6.72;;;5.57;;
67108;SDS011;54027;50.786;7.058;2023-09-07T00:39:58;9.05;;;5.60;;
67108;SDS011;54027;50.786;7.058;2023-09-07T00:42:24;6.93;;;5.65;;
67108;SDS011;54027;50.786;7.058;2023-09-07T00:44:49;6.68;;;5.10;;
67108;SDS011;54027;50.786;7.058;2023-09-07T00:47:15;9.10;;;6.28;;
67108;SDS011;54027;50.786;7.058;2023-09-07T00:49:41;7.95;;;5.85;;
67108;SDS011;54027;50.786;7.058;2023-09-07T00:52:07;7.50;;;5.63;;
67108;SDS011;54027;50.786;7.058;2023-09-07T00:54:33;11.77;;;7.05;;
67108;SDS011;54027;50.786;7.058;2023-09-07T00:56:59;8.63;;;6.85;;
67108;SDS011;54027;50.786;7.058;2023-09-07T00:59:24;12.15;;;7.18;;
67108;SDS011;54027;50.786;7.058;2023-09-07T01:01:50;7.60;;;6.20;;
67108;SDS011;54027;50.786;7.058;2023-09-07T01:04:15;7.80;;;6.40;;
67108;SDS011;54027;50.786;7.058;2023-09-07T01:06:45;6.32;;;5.28;;
67108;SDS011;54027;50.786;7.058;2023-09-07T01:09:17;7.50;;;6.03;;
67108;SDS011;54027;50.786;7.058;2023-09-07T01:11:45;8.32;;;6.55;;
67108;SDS011;54027;50.786;7.058;2023-09-07T01:14:10;8.20;;;6.53;;
67108;SDS011;54027;50.786;7.058;2023-09-07T01:16:36;8.73;;;6.28;;
67108;SDS011;54027;50.786;7.058;2023-09-07T01:19:03;10.60;;;7.30;;
67108;SDS011;54027;50.786;7.058;2023-09-07T01:21:34;11.63;;;7.65;;
67108;SDS011;54027;50.786;7.058;2023-09-07T01:24:11;9.95;;;7.93;;
67108;SDS011;54027;50.786;7.058;2023-09-07T01:26:39;10.07;;;7.55;;
67108;SDS011;54027;50.786;7.058;2023-09-07T01:29:07;9.63;;;7.40;;
67108;SDS011;54027;50.786;7.058;2023-09-07T01:31:35;10.27;;;7.47;;
67108;SDS011;54027;50.786;7.058;2023-09-07T01:34:02;8.35;;;7.18;;
67108;SDS011;54027;50.786;7.058;2023-09-07T01:36:29;8.02;;;6.75;;
67108;SDS011;54027;50.786;7.058;2023-09-07T01:38:54;9.13;;;7.15;;
67108;SDS011;54027;50.786;7.058;2023-09-07T01:41:19;8.35;;;7.32;;
67108;SDS011;54027;50.786;7.058;2023-09-07T01:43:45;8.93;;;6.82;;
67108;SDS011;54027;50.786;7.058;2023-09-07T01:46:10;9.10;;;6.80;;
67108;SDS011;54027;50.786;7.058;2023-09-07T01:48:35;11.05;;;7.43;;
67108;SDS011;54027;50.786;7.058;2023-09-07T01:51:01;11.20;;;7.43;;
67108;SDS011;54027;50.786;7.058;2023-09-07T01:53:26;9.10;;;7.00;;
67108;SDS011;54027;50.786;7.058;2023-09-07T01:55:53;9.52;;;7.00;;
67108;SDS011;54027;50.786;7.058;2023-09-07T01:58:20;10.90;;;6.90;;
67108;SDS011;54027;50.786;7.058;2023-09-07T02:00:46;8.82;;;6.30;;
67108;SDS011;54027;50.786;7.058;2023-09-07T02:03:11;8.27;;;7.00;;
67108;SDS011;54027;50.786;7.058;2023-09-07T02:05:36;10.75;;;7.63;;
67108;SDS011;54027;50.786;7.058;2023-09-07T02:08:02;11.63;;;8.02;;
67108;SDS011;54027;50.786;7.058;2023-09-07T02:10:29;14.20;;;8.50;;
67108;SDS011;54027;50.786;7.058;2023-09-07T02:12:55;12.63;;;7.50;;
67108;SDS011;54027;50.786;7.058;2023-09-07T02:15:22;9.25;;;7.35;;
67108;SDS011;54027;50.786;7.058;2023-09-07T02:17:49;7.70;;;6.65;;
67108;SDS011;54027;50.786;7.058;2023-09-07T02:20:14;10.85;;;7.28;;
67108;SDS011;54027;50.786;7.058;2023-09-07T02:22:40;10.32;;;7.10;;
67108;SDS011;54027;50.786;7.058;2023-09-07T02:25:05;9.85;;;7.47;;
67108;SDS011;54027;50.786;7.058;2023-09-07T02:27:32;11.18;;;8.30;;
67108;SDS011;54027;50.786;7.058;2023-09-07T02:29:57;9.73;;;8.45;;
67108;SDS011;54027;50.786;7.058;2023-09-07T02:32:23;14.00;;;9.38;;
67108;SDS011;54027;50.786;7.058;2023-09-07T02:34:48;9.80;;;8.23;;
67108;SDS011;54027;50.786;7.058;2023-09-07T02:37:13;12.82;;;8.73;;
67108;SDS011;54027;50.786;7.058;2023-09-07T02:39:40;10.52;;;8.82;;
67108;SDS011;54027;50.786;7.058;2023-09-07T02:42:06;12.05;;;7.57;;
67108;SDS011;54027;50.786;7.058;2023-09-07T02:44:31;9.88;;;8.05;;
67108;SDS011;54027;50.786;7.058;2023-09-07T02:46:57;12.18;;;8.02;;
67108;SDS011;54027;50.786;7.058;2023-09-07T02:49:22;9.98;;;7.40;;
67108;SDS011;54027;50.786;7.058;2023-09-07T02:51:47;10.10;;;7.45;;
67108;SDS011;54027;50.786;7.058;2023-09-07T02:54:13;9.98;;;6.72;;
67108;SDS011;54027;50.786;7.058;2023-09-07T02:56:38;8.65;;;6.72;;
67108;SDS011;54027;50.786;7.058;2023-09-07T02:59:04;11.43;;;7.93;;
67108;SDS011;54027;50.786;7.058;2023-09-07T03:01:29;9.15;;;7.50;;
67108;SDS011;54027;50.786;7.058;2023-09-07T03:03:55;9.25;;;7.47;;
67108;SDS011;54027;50.786;7.058;2023-09-07T03:06:21;11.93;;;7.60;;
67108;SDS011;54027;50.786;7.058;2023-09-07T03:08:46;9.32;;;6.97;;
67108;SDS011;54027;50.786;7.058;2023-09-07T03:11:11;13.43;;;8.40;;
67108;SDS011;54027;50.786;7.058;2023-09-07T03:13:37;9.40;;;7.28;;
67108;SDS011;54027;50.786;7.058;2023-09-07T03:16:03;9.15;;;6.90;;
67108;SDS011;54027;50.786;7.058;2023-09-07T03:18:29;11.00;;;7.57;;
67108;SDS011;54027;50.786;7.058;2023-09-07T03:20:55;11.00;;;7.00;;
67108;SDS011;54027;50.786;7.058;2023-09-07T03:23:23;8.25;;;6.20;;
67108;SDS011;54027;50.786;7.058;2023-09-07T03:25:48;8.07;;;5.78;;
67108;SDS011;54027;50.786;7.058;2023-09-07T03:28:14;11.32;;;6.05;;
67108;SDS011;54027;50.786;7.058;2023-09-07T03:30:39;7.13;;;5.85;;
67108;SDS011;54027;50.786;7.058;2023-09-07T03:33:05;8.60;;;5.57;;
67108;SDS011;54027;50.786;7.058;2023-09-07T03:35:31;9.35;;;6.07;;
67108;SDS011;54027;50.786;7.058;2023-09-07T03:37:56;10.38;;;6.75;;
67108;SDS011;54027;50.786;7.058;2023-09-07T03:40:21;8.15;;;6.50;;
67108;SDS011;54027;50.786;7.058;2023-09-07T03:42:47;9.27;;;5.80;;
67108;SDS011;54027;50.786;7.058;2023-09-07T03:45:12;9.95;;;6.47;;
67108;SDS011;54027;50.786;7.058;2023-09-07T03:47:38;10.68;;;7.05;;
67108;SDS011;54027;50.786;7.058;2023-09-07T03:50:03;10.63;;;6.93;;
67108;SDS011;54027;50.786;7.058;2023-09-07T03:52:29;10.10;;;7.60;;
67108;SDS011;54027;50.786;7.058;2023-09-07T03:54:54;12.70;;;7.57;;
67108;SDS011;54027;50.786;7.058;2023-09-07T03:57:21;10.43;;;6.93;;
67108;SDS011;54027;50.786;7.058;2023-09-07T03:59:47;12.75;;;8.13;;
67108;SDS011;54027;50.786;7.058;2023-09-07T04:02:12;9.50;;;7.40;;
67108;SDS011;54027;50.786;7.058;2023-09-07T04:04:38;10.13;;;7.72;;
67108;SDS011;54027;50.786;7.058;2023-09-07T04:07:03;12.43;;;8.65;;
67108;SDS011;54027;50.786;7.058;2023-09-07T04:09:29;11.48;;;8.23;;
67108;SDS011;54027;50.786;7.058;2023-09-07T04:11:54;10.32;;;7.78;;
67108;SDS011;54027;50.786;7.058;2023-09-07T04:14:19;12.07;;;8.13;;
67108;SDS011;54027;50.786;7.058;2023-09-07T04:16:45;8.85;;;7.18;;
67108;SDS011;54027;50.786;7.058;2023-09-07T04:19:10;12.32;;;8.48;;
67108;SDS011;54027;50.786;7.058;2023-09-07T04:21:36;9.25;;;7.15;;
67108;SDS011;54027;50.786;7.058;2023-09-07T04:24:01;10.07;;;7.50;;
67108;SDS011;54027;50.786;7.058;2023-09-07T04:26:27;8.02;;;6.70;;
67108;SDS011;54027;50.786;7.058;2023-09-07T04:28:52;13.38;;;6.65;;
67108;SDS011;54027;50.786;7.058;2023-09-07T04:31:17;13.23;;;7.50;;
67108;SDS011;54027;50.786;7.058;2023-09-07T04:33:43;11.25;;;7.40;;
67108;SDS011;54027;50.786;7.058;2023-09-07T04:36:09;9.82;;;7.50;;
67108;SDS011;54027;50.786;7.058;2023-09-07T04:38:40;9.32;;;7.22;;
67108;SDS011;54027;50.786;7.058;2023-09-07T04:41:12;10.32;;;7.38;;
67108;SDS011;54027;50.786;7.058;2023-09-07T04:43:39;9.52;;;7.07;;
67108;SDS011;54027;50.786;7.058;2023-09-07T04:46:05;9.43;;;7.38;;
67108;SDS011;54027;50.786;7.058;2023-09-07T04:48:31;11.43;;;7.50;;
67108;SDS011;54027;50.786;7.058;2023-09-07T04:51:00;9.77;;;7.20;;
67108;SDS011;54027;50.786;7.058;2023-09-07T04:53:28;10.05;;;6.40;;
67108;SDS011;54027;50.786;7.058;2023-09-07T04:55:54;10.18;;;6.50;;
67108;SDS011;54027;50.786;7.058;2023-09-07T04:58:20;11.32;;;6.88;;
67108;SDS011;54027;50.786;7.058;2023-09-07T05:00:45;9.70;;;7.30;;
67108;SDS011;54027;50.786;7.058;2023-09-07T05:03:11;7.75;;;6.30;;
67108;SDS011;54027;50.786;7.058;2023-09-07T05:05:37;11.77;;;7.57;;
67108;SDS011;54027;50.786;7.058;2023-09-07T05:08:03;9.75;;;7.30;;
67108;SDS011;54027;50.786;7.058;2023-09-07T05:10:30;12.90;;;8.50;;
67108;SDS011;54027;50.786;7.058;2023-09-07T05:12:58;8.55;;;7.10;;
67108;SDS011;54027;50.786;7.058;2023-09-07T05:15:23;12.05;;;6.90;;
67108;SDS011;54027;50.786;7.058;2023-09-07T05:17:48;8.45;;;6.65;;
67108;SDS011;54027;50.786;7.058;2023-09-07T05:20:13;11.85;;;7.60;;
67108;SDS011;54027;50.786;7.058;2023-09-07T05:22:39;11.95;;;7.80;;
67108;SDS011;54027;50.786;7.058;2023-09-07T05:25:06;10.27;;;7.22;;
67108;SDS011;54027;50.786;7.058;2023-09-07T05:27:33;11.20;;;7.82;;
67108;SDS011;54027;50.786;7.058;2023-09-07T05:30:00;10.85;;;7.50;;
67108;SDS011;54027;50.786;7.058;2023-09-07T05:32:26;12.73;;;7.15;;
67108;SDS011;54027;50.786;7.058;2023-09-07T05:34:51;11.38;;;7.40;;
67108;SDS011;54027;50.786;7.058;2023-09-07T05:37:17;14.90;;;7.82;;
67108;SDS011;54027;50.786;7.058;2023-09-07T05:39:42;10.02;;;6.88;;
67108;SDS011;54027;50.786;7.058;2023-09-07T05:42:07;9.98;;;8.07;;
67108;SDS011;54027;50.786;7.058;2023-09-07T05:44:33;19.73;;;7.43;;
67108;SDS011;54027;50.786;7.058;2023-09-07T05:46:58;11.63;;;7.60;;
67108;SDS011;54027;50.786;7.058;2023-09-07T05:49:25;10.90;;;6.30;;
67108;SDS011;54027;50.786;7.058;2023-09-07T05:51:50;12.32;;;7.85;;
67108;SDS011;54027;50.786;7.058;2023-09-07T05:54:15;12.65;;;8.15;;
67108;SDS011;54027;50.786;7.058;2023-09-07T05:56:41;10.75;;;8.43;;
67108;SDS011;54027;50.786;7.058;2023-09-07T05:59:06;13.60;;;7.25;;
67108;SDS011;54027;50.786;7.058;2023-09-07T06:01:32;9.82;;;6.93;;
67108;SDS011;54027;50.786;7.058;2023-09-07T06:03:58;9.60;;;7.30;;
67108;SDS011;54027;50.786;7.058;2023-09-07T06:06:23;12.90;;;7.18;;
67108;SDS011;54027;50.786;7.058;2023-09-07T06:08:49;10.23;;;7.07;;
67108;SDS011;54027;50.786;7.058;2023-09-07T06:11:14;9.18;;;6.82;;
67108;SDS011;54027;50.786;7.058;2023-09-07T06:13:39;10.27;;;6.10;;
67108;SDS011;54027;50.786;7.058;2023-09-07T06:16:06;8.13;;;5.38;;
67108;SDS011;54027;50.786;7.058;2023-09-07T06:18:31;8.75;;;5.75;;
67108;SDS011;54027;50.786;7.058;2023-09-07T06:20:57;6.47;;;5.07;;
67108;SDS011;54027;50.786;7.058;2023-09-07T06:23:22;8.70;;;6.18;;
67108;SDS011;54027;50.786;7.058;2023-09-07T06:25:47;8.63;;;5.30;;
67108;SDS011;54027;50.786;7.058;2023-09-07T06:28:13;11.65;;;6.15;;
67108;SDS011;54027;50.786;7.058;2023-09-07T06:30:38;7.47;;;4.70;;
67108;SDS011;54027;50.786;7.058;2023-09-07T06:33:04;7.40;;;5.47;;
67108;SDS011;54027;50.786;7.058;2023-09-07T06:35:29;6.50;;;4.88;;
67108;SDS011;54027;50.786;7.058;2023-09-07T06:37:55;5.43;;;4.80;;
67108;SDS011;54027;50.786;7.058;2023-09-07T06:40:21;8.27;;;5.07;;
67108;SDS011;54027;50.786;7.058;2023-09-07T06:42:47;7.45;;;5.32;;
67108;SDS011;54027;50.786;7.058;2023-09-07T06:45:12;8.55;;;5.40;;
67108;SDS011;54027;50.786;7.058;2023-09-07T06:47:38;7.18;;;5.13;;
67108;SDS011;54027;50.786;7.058;2023-09-07T06:50:04;6.40;;;5.10;;
67108;SDS011;54027;50.786;7.058;2023-09-07T06:52:30;6.43;;;5.20;;
67108;SDS011;54027;50.786;7.058;2023-09-07T06:54:55;9.27;;;4.53;;
67108;SDS011;54027;50.786;7.058;2023-09-07T06:57:21;6.03;;;5.20;;
67108;SDS011;54027;50.786;7.058;2023-09-07T06:59:46;6.50;;;4.35;;
67108;SDS011;54027;50.786;7.058;2023-09-07T07:02:13;5.97;;;4.38;;
67108;SDS011;54027;50.786;7.058;2023-09-07T07:04:39;7.63;;;5.40;;
67108;SDS011;54027;50.786;7.058;2023-09-07T07:07:04;6.82;;;4.72;;
67108;SDS011;54027;50.786;7.058;2023-09-07T07:09:30;6.88;;;4.60;;
67108;SDS011;54027;50.786;7.058;2023-09-07T07:11:57;6.20;;;4.55;;
67108;SDS011;54027;50.786;7.058;2023-09-07T07:14:25;8.07;;;4.70;;
67108;SDS011;54027;50.786;7.058;2023-09-07T07:16:50;9.73;;;4.85;;
67108;SDS011;54027;50.786;7.058;2023-09-07T07:19:16;8.13;;;4.90;;
67108;SDS011;54027;50.786;7.058;2023-09-07T07:21:41;5.72;;;4.50;;
67108;SDS011;54027;50.786;7.058;2023-09-07T07:24:07;9.85;;;5.00;;
67108;SDS011;54027;50.786;7.058;2023-09-07T07:26:32;7.38;;;4.88;;
67108;SDS011;54027;50.786;7.058;2023-09-07T07:28:58;8.35;;;4.68;;
67108;SDS011;54027;50.786;7.058;2023-09-07T07:31:23;7.55;;;4.70;;
67108;SDS011;54027;50.786;7.058;2023-09-07T07:33:49;8.45;;;4.95;;
67108;SDS011;54027;50.786;7.058;2023-09-07T07:36:15;6.88;;;4.40;;
67108;SDS011;54027;50.786;7.058;2023-09-07T07:38:40;7.88;;;4.22;;
67108;SDS011;54027;50.786;7.058;2023-09-07T07:41:06;7.05;;;4.28;;
67108;SDS011;54027;50.786;7.058;2023-09-07T07:43:32;6.63;;;3.83;;
67108;SDS011;54027;50.786;7.058;2023-09-07T07:45:58;8.10;;;4.10;;
67108;SDS011;54027;50.786;7.058;2023-09-07T07:48:24;5.35;;;4.25;;
67108;SDS011;54027;50.786;7.058;2023-09-07T07:50:49;6.50;;;4.30;;
67108;SDS011;54027;50.786;7.058;2023-09-07T07:53:15;6.65;;;4.45;;
67108;SDS011;54027;50.786;7.058;2023-09-07T07:55:40;6.97;;;4.53;;
67108;SDS011;54027;50.786;7.058;2023-09-07T07:58:09;8.75;;;4.38;;
67108;SDS011;54027;50.786;7.058;2023-09-07T08:00:38;6.30;;;4.00;;
67108;SDS011;54027;50.786;7.058;2023-09-07T08:03:04;6.07;;;4.20;;
67108;SDS011;54027;50.786;7.058;2023-09-07T08:05:31;7.50;;;4.45;;
67108;SDS011;54027;50.786;7.058;2023-09-07T08:07:57;5.68;;;4.45;;
67108;SDS011;54027;50.786;7.058;2023-09-07T08:10:23;4.97;;;4.30;;
67108;SDS011;54027;50.786;7.058;2023-09-07T08:12:51;8.50;;;4.13;;
67108;SDS011;54027;50.786;7.058;2023-09-07T08:15:18;8.70;;;4.70;;
67108;SDS011;54027;50.786;7.058;2023-09-07T08:17:46;5.82;;;4.68;;
67108;SDS011;54027;50.786;7.058;2023-09-07T08:20:12;8.73;;;5.20;;
67108;SDS011;54027;50.786;7.058;2023-09-07T08:22:38;7.03;;;3.92;;
67108;SDS011;54027;50.786;7.058;2023-09-07T08:25:05;6.50;;;4.50;;
67108;SDS011;54027;50.786;7.058;2023-09-07T08:27:32;5.90;;;4.15;;
67108;SDS011;54027;50.786;7.058;2023-09-07T08:29:57;7.50;;;4.28;;
67108;SDS011;54027;50.786;7.058;2023-09-07T08:32:24;6.60;;;4.63;;
67108;SDS011;54027;50.786;7.058;2023-09-07T08:34:49;11.02;;;4.95;;
67108;SDS011;54027;50.786;7.058;2023-09-07T08:37:16;6.45;;;4.55;;
67108;SDS011;54027;50.786;7.058;2023-09-07T08:39:41;5.82;;;4.55;;
67108;SDS011;54027;50.786;7.058;2023-09-07T08:42:09;5.30;;;3.97;;
67108;SDS011;54027;50.786;7.058;2023-09-07T08:44:36;10.38;;;4.93;;
67108;SDS011;54027;50.786;7.058;2023-09-07T08:47:02;5.35;;;3.72;;
67108;SDS011;54027;50.786;7.058;2023-09-07T08:49:29;6.13;;;3.78;;
67108;SDS011;54027;50.786;7.058;2023-09-07T08:51:57;4.93;;;4.00;;
67108;SDS011;54027;50.786;7.058;2023-09-07T08:54:23;10.18;;;3.85;;
67108;SDS011;54027;50.786;7.058;2023-09-07T08:56:50;7.03;;;4.40;;
67108;SDS011;54027;50.786;7.058;2023-09-07T08:59:15;8.85;;;4.07;;
67108;SDS011;54027;50.786;7.058;2023-09-07T09:01:41;6.53;;;4.50;;
67108;SDS011;54027;50.786;7.058;2023-09-07T09:04:06;5.85;;;4.38;;
67108;SDS011;54027;50.786;7.058;2023-09-07T09:06:32;6.53;;;4.57;;
67108;SDS011;54027;50.786;7.058;2023-09-07T09:08:58;8.30;;;4.10;;
67108;SDS011;54027;50.786;7.058;2023-09-07T09:11:23;10.07;;;4.90;;
67108;SDS011;54027;50.786;7.058;2023-09-07T09:13:51;8.10;;;4.72;;
67108;SDS011;54027;50.786;7.058;2023-09-07T09:16:17;6.55;;;4.10;;
67108;SDS011;54027;50.786;7.058;2023-09-07T09:18:47;5.13;;;3.75;;
67108;SDS011;54027;50.786;7.058;2023-09-07T09:21:14;6.90;;;4.25;;
67108;SDS011;54027;50.786;7.058;2023-09-07T09:23:41;6.60;;;4.72;;
67108;SDS011;54027;50.786;7.058;2023-09-07T09:26:06;9.40;;;4.30;;
67108;SDS011;54027;50.786;7.058;2023-09-07T09:28:34;5.88;;;3.40;;
67108;SDS011;54027;50.786;7.058;2023-09-07T09:31:00;7.15;;;4.35;;
67108;SDS011;54027;50.786;7.058;2023-09-07T09:33:30;7.20;;;4.20;;
67108;SDS011;54027;50.786;7.058;2023-09-07T09:35:56;5.47;;;3.70;;
67108;SDS011;54027;50.786;7.058;2023-09-07T09:38:22;6.45;;;4.22;;
67108;SDS011;54027;50.786;7.058;2023-09-07T09:40:48;6.65;;;3.90;;
67108;SDS011;54027;50.786;7.058;2023-09-07T09:43:13;7.68;;;4.13;;
67108;SDS011;54027;50.786;7.058;2023-09-07T09:45:39;6.82;;;3.95;;
67108;SDS011;54027;50.786;7.058;2023-09-07T09:48:05;7.07;;;4.07;;
67108;SDS011;54027;50.786;7.058;2023-09-07T09:50:31;10.65;;;4.35;;
67108;SDS011;54027;50.786;7.058;2023-09-07T09:53:03;7.13;;;3.70;;
67108;SDS011;54027;50.786;7.058;2023-09-07T09:55:31;8.27;;;4.38;;
67108;SDS011;54027;50.786;7.058;2023-09-07T09:57:57;5.40;;;3.40;;
67108;SDS011;54027;50.786;7.058;2023-09-07T10:00:22;9.73;;;3.47;;
67108;SDS011;54027;50.786;7.058;2023-09-07T10:03:02;6.60;;;3.80;;
67108;SDS011;54027;50.786;7.058;2023-09-07T10:05:31;6.70;;;3.85;;
67108;SDS011;54027;50.786;7.058;2023-09-07T10:08:02;7.35;;;3.80;;
67108;SDS011;54027;50.786;7.058;2023-09-07T10:10:33;8.70;;;4.25;;
67108;SDS011;54027;50.786;7.058;2023-09-07T10:13:04;7.95;;;3.75;;
67108;SDS011;54027;50.786;7.058;2023-09-07T10:15:30;4.60;;;3.67;;
67108;SDS011;54027;50.786;7.058;2023-09-07T10:18:03;5.78;;;4.25;;
67108;SDS011;54027;50.786;7.058;2023-09-07T10:20:34;8.27;;;3.77;;
67108;SDS011;54027;50.786;7.058;2023-09-07T10:23:12;6.97;;;3.70;;
67108;SDS011;54027;50.786;7.058;2023-09-07T10:25:37;7.95;;;4.38;;
67108;SDS011;54027;50.786;7.058;2023-09-07T10:28:03;9.52;;;3.85;;
67108;SDS011;54027;50.786;7.058;2023-09-07T10:30:29;4.72;;;3.65;;
67108;SDS011;54027;50.786;7.058;2023-09-07T10:32:54;5.03;;;3.85;;
67108;SDS011;54027;50.786;7.058;2023-09-07T10:35:19;7.45;;;4.15;;
67108;SDS011;54027;50.786;7.058;2023-09-07T10:37:49;6.68;;;3.72;;
67108;SDS011;54027;50.786;7.058;2023-09-07T10:40:21;11.32;;;4.05;;
67108;SDS011;54027;50.786;7.058;2023-09-07T10:42:47;6.25;;;3.97;;
67108;SDS011;54027;50.786;7.058;2023-09-07T10:45:13;6.32;;;3.72;;
67108;SDS011;54027;50.786;7.058;2023-09-07T10:47:44;9.23;;;3.60;;
67108;SDS011;54027;50.786;7.058;2023-09-07T10:50:13;6.38;;;3.58;;
67108;SDS011;54027;50.786;7.058;2023-09-07T10:52:42;4.38;;;3.67;;
67108;SDS011;54027;50.786;7.058;2023-09-07T10:55:08;5.60;;;3.95;;
67108;SDS011;54027;50.786;7.058;2023-09-07T10:57:42;5.53;;;3.90;;
67108;SDS011;54027;50.786;7.058;2023-09-07T11:00:08;4.72;;;3.53;;
67108;SDS011;54027;50.786;7.058;2023-09-07T11:02:36;4.35;;;3.30;;
67108;SDS011;54027;50.786;7.058;2023-09-07T11:05:02;6.72;;;3.53;;
67108;SDS011;54027;50.786;7.058;2023-09-07T11:07:28;4.63;;;3.55;;
67108;SDS011;54027;50.786;7.058;2023-09-07T11:09:53;4.30;;;3.83;;
67108;SDS011;54027;50.786;7.058;2023-09-07T11:12:20;4.85;;;3.58;;
67108;SDS011;54027;50.786;7.058;2023-09-07T11:14:49;5.18;;;3.38;;
67108;SDS011;54027;50.786;7.058;2023-09-07T11:17:15;5.32;;;3.42;;
67108;SDS011;54027;50.786;7.058;2023-09-07T11:19:41;5.60;;;3.25;;
67108;SDS011;54027;50.786;7.058;2023-09-07T11:22:09;8.40;;;3.30;;
67108;SDS011;54027;50.786;7.058;2023-09-07T11:24:34;4.80;;;3.50;;
67108;SDS011;54027;50.786;7.058;2023-09-07T11:27:00;4.68;;;3.28;;
67108;SDS011;54027;50.786;7.058;2023-09-07T11:29:25;4.82;;;3.58;;
67108;SDS011;54027;50.786;7.058;2023-09-07T11:31:51;3.97;;;3.00;;
67108;SDS011;54027;50.786;7.058;2023-09-07T11:34:16;7.97;;;3.20;;
67108;SDS011;54027;50.786;7.058;2023-09-07T11:36:42;5.78;;;3.17;;
67108;SDS011;54027;50.786;7.058;2023-09-07T11:39:08;5.88;;;3.25;;
67108;SDS011;54027;50.786;7.058;2023-09-07T11:41:40;4.00;;;3.33;;
67108;SDS011;54027;50.786;7.058;2023-09-07T11:44:07;4.55;;;3.28;;
67108;SDS011;54027;50.786;7.058;2023-09-07T11:46:33;5.45;;;3.20;;
67108;SDS011;54027;50.786;7.058;2023-09-07T11:48:59;5.63;;;3.20;;
67108;SDS011;54027;50.786;7.058;2023-09-07T11:51:24;9.30;;;3.25;;
67108;SDS011;54027;50.786;7.058;2023-09-07T11:53:50;6.38;;;3.47;;
67108;SDS011;54027;50.786;7.058;2023-09-07T11:56:15;6.25;;;3.33;;
67108;SDS011;54027;50.786;7.058;2023-09-07T11:58:41;5.72;;;3.47;;
67108;SDS011;54027;50.786;7.058;2023-09-07T12:01:07;5.65;;;3.47;;
67108;SDS011;54027;50.786;7.058;2023-09-07T12:03:34;4.82;;;3.20;;
67108;SDS011;54027;50.786;7.058;2023-09-07T12:05:59;4.72;;;3.60;;
67108;SDS011;54027;50.786;7.058;2023-09-07T12:08:25;4.95;;;3.25;;
67108;SDS011;54027;50.786;7.058;2023-09-07T12:10:50;4.82;;;3.08;;
67108;SDS011;54027;50.786;7.058;2023-09-07T12:13:16;4.30;;;2.88;;
67108;SDS011;54027;50.786;7.058;2023-09-07T12:15:41;6.07;;;3.60;;
67108;SDS011;54027;50.786;7.058;2023-09-07T12:18:06;6.53;;;3.28;;
67108;SDS011;54027;50.786;7.058;2023-09-07T12:20:32;4.80;;;2.75;;
67108;SDS011;54027;50.786;7.058;2023-09-07T12:22:59;5.28;;;3.15;;
67108;SDS011;54027;50.786;7.058;2023-09-07T12:25:25;4.43;;;2.70;;
67108;SDS011;54027;50.786;7.058;2023-09-07T12:27:50;5.97;;;3.30;;
67108;SDS011;54027;50.786;7.058;2023-09-07T12:30:17;3.63;;;3.05;;
67108;SDS011;54027;50.786;7.058;2023-09-07T12:32:45;6.00;;;3.33;;
67108;SDS011;54027;50.786;7.058;2023-09-07T12:35:10;4.57;;;3.03;;
67108;SDS011;54027;50.786;7.058;2023-09-07T12:37:36;4.88;;;3.35;;
67108;SDS011;54027;50.786;7.058;2023-09-07T12:40:02;7.05;;;3.00;;
67108;SDS011;54027;50.786;7.058;2023-09-07T12:42:32;8.07;;;3.33;;
67108;SDS011;54027;50.786;7.058;2023-09-07T12:44:58;5.35;;;3.38;;
67108;SDS011;54027;50.786;7.058;2023-09-07T12:47:23;4.53;;;2.97;;
67108;SDS011;54027;50.786;7.058;2023-09-07T12:49:48;5.22;;;2.95;;
67108;SDS011;54027;50.786;7.058;2023-09-07T12:52:13;4.78;;;3.10;;
67108;SDS011;54027;50.786;7.058;2023-09-07T12:54:40;5.43;;;2.65;;
67108;SDS011;54027;50.786;7.058;2023-09-07T12:57:05;4.22;;;3.00;;
67108;SDS011;54027;50.786;7.058;2023-09-07T12:59:30;5.00;;;3.45;;
67108;SDS011;54027;50.786;7.058;2023-09-07T13:01:56;6.25;;;3.60;;
67108;SDS011;54027;50.786;7.058;2023-09-07T13:04:21;4.68;;;2.83;;
67108;SDS011;54027;50.786;7.058;2023-09-07T13:06:47;3.65;;;3.00;;
67108;SDS011;54027;50.786;7.058;2023-09-07T13:09:12;5.20;;;3.13;;
67108;SDS011;54027;50.786;7.058;2023-09-07T13:11:38;5.53;;;2.95;;
67108;SDS011;54027;50.786;7.058;2023-09-07T13:14:04;6.15;;;3.28;;
67108;SDS011;54027;50.786;7.058;2023-09-07T13:16:29;5.88;;;3.10;;
67108;SDS011;54027;50.786;7.058;2023-09-07T13:18:57;7.13;;;3.55;;
67108;SDS011;54027;50.786;7.058;2023-09-07T13:21:23;4.20;;;3.08;;
67108;SDS011;54027;50.786;7.058;2023-09-07T13:23:48;5.13;;;3.03;;
67108;SDS011;54027;50.786;7.058;2023-09-07T13:26:14;4.53;;;3.20;;
67108;SDS011;54027;50.786;7.058;2023-09-07T13:28:39;4.20;;;3.38;;
67108;SDS011;54027;50.786;7.058;2023-09-07T13:31:05;5.10;;;3.30;;
67108;SDS011;54027;50.786;7.058;2023-09-07T13:33:30;5.90;;;3.40;;
67108;SDS011;54027;50.786;7.058;2023-09-07T13:35:56;6.55;;;2.97;;
67108;SDS011;54027;50.786;7.058;2023-09-07T13:38:21;6.57;;;3.10;;
67108;SDS011;54027;50.786;7.058;2023-09-07T13:40:47;7.82;;;3.13;;
67108;SDS011;54027;50.786;7.058;2023-09-07T13:43:12;4.68;;;3.08;;
67108;SDS011;54027;50.786;7.058;2023-09-07T13:45:37;6.38;;;3.40;;
67108;SDS011;54027;50.786;7.058;2023-09-07T13:48:03;3.03;;;2.70;;
67108;SDS011;54027;50.786;7.058;2023-09-07T13:50:29;3.60;;;3.03;;
67108;SDS011;54027;50.786;7.058;2023-09-07T13:52:55;4.28;;;3.50;;
67108;SDS011;54027;50.786;7.058;2023-09-07T13:55:21;5.28;;;3.45;;
67108;SDS011;54027;50.786;7.058;2023-09-07T13:57:47;7.07;;;3.70;;
67108;SDS011;54027;50.786;7.058;2023-09-07T14:00:12;7.68;;;3.50;;
67108;SDS011;54027;50.786;7.058;2023-09-07T14:02:38;4.82;;;3.78;;
67108;SDS011;54027;50.786;7.058;2023-09-07T14:05:03;3.67;;;3.28;;
67108;SDS011;54027;50.786;7.058;2023-09-07T14:07:29;5.88;;;3.15;;
67108;SDS011;54027;50.786;7.058;2023-09-07T14:09:55;7.88;;;3.63;;
67108;SDS011;54027;50.786;7.058;2023-09-07T14:12:21;3.92;;;3.10;;
67108;SDS011;54027;50.786;7.058;2023-09-07T14:14:47;5.45;;;2.97;;
67108;SDS011;54027;50.786;7.058;2023-09-07T14:17:13;9.02;;;3.35;;
67108;SDS011;54027;50.786;7.058;2023-09-07T14:19:38;5.55;;;3.78;;
67108;SDS011;54027;50.786;7.058;2023-09-07T14:22:03;6.50;;;3.30;;
67108;SDS011;54027;50.786;7.058;2023-09-07T14:24:29;4.35;;;3.50;;
67108;SDS011;54027;50.786;7.058;2023-09-07T14:26:54;3.67;;;3.10;;
67108;SDS011;54027;50.786;7.058;2023-09-07T14:29:19;4.43;;;2.92;;
67108;SDS011;54027;50.786;7.058;2023-09-07T14:31:45;3.83;;;3.20;;
67108;SDS011;54027;50.786;7.058;2023-09-07T14:34:11;5.78;;;3.58;;
67108;SDS011;54027;50.786;7.058;2023-09-07T14:36:37;5.18;;;3.10;;
67108;SDS011;54027;50.786;7.058;2023-09-07T14:39:05;5.93;;;3.40;;